sensor_id;sensor_type;location;lat;lon;timestamp;P1;durP1;ratioP1;P2;durP2;ratioP2
20067;SDS011;10194;50.824;7.134;2023-02-24T00:01:58;216.30;;;149.23;;
20067;SDS011;10194;50.824;7.134;2023-02-24T00:04:33;215.27;;;150.90;;
20067;SDS011;10194;50.824;7.134;2023-02-24T00:07:05;214.83;;;147.20;;
20067;SDS011;10194;50.824;7.134;2023-02-24T00:09:33;218.77;;;148.80;;
20067;SDS011;10194;50.824;7.134;2023-02-24T00:12:00;218.47;;;153.57;;
20067;SDS011;10194;50.824;7.134;2023-02-24T00:14:31;221.63;;;148.50;;
20067;SDS011;10194;50.824;7.134;2023-02-24T00:16:59;215.97;;;151.20;;
20067;SDS011;10194;50.824;7.134;2023-02-24T00:19:26;213.17;;;151.03;;
20067;SDS011;10194;50.824;7.134;2023-02-24T00:21:57;218.70;;;149.73;;
20067;SDS011;10194;50.824;7.134;2023-02-24T00:24:25;225.20;;;152.67;;
20067;SDS011;10194;50.824;7.134;2023-02-24T00:26:58;221.13;;;150.37;;
20067;SDS011;10194;50.824;7.134;2023-02-24T00:29:26;218.40;;;151.77;;
20067;SDS011;10194;50.824;7.134;2023-02-24T00:31:54;213.13;;;152.50;;
20067;SDS011;10194;50.824;7.134;2023-02-24T00:34:32;212.23;;;150.50;;
20067;SDS011;10194;50.824;7.134;2023-02-24T00:37:02;215.00;;;150.43;;
20067;SDS011;10194;50.824;7.134;2023-02-24T00:39:31;214.43;;;152.73;;
20067;SDS011;10194;50.824;7.134;2023-02-24T00:41:58;214.73;;;150.43;;
20067;SDS011;10194;50.824;7.134;2023-02-24T00:44:31;213.63;;;147.43;;
20067;SDS011;10194;50.824;7.134;2023-02-24T00:47:00;213.90;;;149.03;;
20067;SDS011;10194;50.824;7.134;2023-02-24T00:49:29;216.07;;;148.63;;
20067;SDS011;10194;50.824;7.134;2023-02-24T00:51:56;212.50;;;146.90;;
20067;SDS011;10194;50.824;7.134;2023-02-24T00:54:22;213.40;;;150.37;;
20067;SDS011;10194;50.824;7.134;2023-02-24T00:56:52;220.57;;;147.93;;
20067;SDS011;10194;50.824;7.134;2023-02-24T00:59:20;222.73;;;153.37;;
20067;SDS011;10194;50.824;7.134;2023-02-24T01:01:48;211.13;;;146.17;;
20067;SDS011;10194;50.824;7.134;2023-02-24T01:04:15;222.97;;;147.50;;
20067;SDS011;10194;50.824;7.134;2023-02-24T01:06:52;223.87;;;147.70;;
20067;SDS011;10194;50.824;7.134;2023-02-24T01:09:24;237.03;;;155.03;;
20067;SDS011;10194;50.824;7.134;2023-02-24T01:11:52;235.80;;;154.23;;
20067;SDS011;10194;50.824;7.134;2023-02-24T01:14:37;236.03;;;155.37;;
20067;SDS011;10194;50.824;7.134;2023-02-24T01:17:04;229.47;;;154.57;;
20067;SDS011;10194;50.824;7.134;2023-02-24T01:19:32;238.77;;;153.60;;
20067;SDS011;10194;50.824;7.134;2023-02-24T01:22:00;233.90;;;150.23;;
20067;SDS011;10194;50.824;7.134;2023-02-24T01:24:31;227.57;;;155.60;;
20067;SDS011;10194;50.824;7.134;2023-02-24T01:27:04;230.97;;;156.60;;
20067;SDS011;10194;50.824;7.134;2023-02-24T01:29:31;224.30;;;154.90;;
20067;SDS011;10194;50.824;7.134;2023-02-24T01:31:57;231.63;;;152.47;;
20067;SDS011;10194;50.824;7.134;2023-02-24T01:34:24;231.97;;;155.70;;
20067;SDS011;10194;50.824;7.134;2023-02-24T01:36:51;229.80;;;157.53;;
20067;SDS011;10194;50.824;7.134;2023-02-24T01:39:17;223.17;;;154.77;;
20067;SDS011;10194;50.824;7.134;2023-02-24T01:41:43;220.47;;;150.13;;
20067;SDS011;10194;50.824;7.134;2023-02-24T01:46:39;223.43;;;157.43;;
20067;SDS011;10194;50.824;7.134;2023-02-24T01:49:15;228.03;;;166.00;;
20067;SDS011;10194;50.824;7.134;2023-02-24T01:54:33;225.63;;;166.03;;
20067;SDS011;10194;50.824;7.134;2023-02-24T01:57:07;228.27;;;165.90;;
20067;SDS011;10194;50.824;7.134;2023-02-24T01:59:35;229.13;;;163.63;;
20067;SDS011;10194;50.824;7.134;2023-02-24T02:02:03;233.80;;;163.27;;
20067;SDS011;10194;50.824;7.134;2023-02-24T02:07:23;226.47;;;173.23;;
20067;SDS011;10194;50.824;7.134;2023-02-24T02:09:51;231.03;;;175.10;;
20067;SDS011;10194;50.824;7.134;2023-02-24T02:12:19;233.47;;;176.07;;
20067;SDS011;10194;50.824;7.134;2023-02-24T02:14:49;236.40;;;179.03;;
20067;SDS011;10194;50.824;7.134;2023-02-24T02:29:17;232.83;;;207.00;;
20067;SDS011;10194;50.824;7.134;2023-02-24T02:38:34;232.50;;;201.50;;
20067;SDS011;10194;50.824;7.134;2023-02-24T02:41:20;233.77;;;202.23;;
20067;SDS011;10194;50.824;7.134;2023-02-24T02:44:05;233.00;;;196.47;;
20067;SDS011;10194;50.824;7.134;2023-02-24T02:49:28;231.90;;;197.37;;
20067;SDS011;10194;50.824;7.134;2023-02-24T02:52:04;229.87;;;199.83;;
20067;SDS011;10194;50.824;7.134;2023-02-24T02:57:20;228.90;;;199.57;;
20067;SDS011;10194;50.824;7.134;2023-02-24T02:59:51;227.20;;;195.47;;
20067;SDS011;10194;50.824;7.134;2023-02-24T03:02:53;225.23;;;195.03;;
20067;SDS011;10194;50.824;7.134;2023-02-24T03:05:28;223.23;;;190.67;;
20067;SDS011;10194;50.824;7.134;2023-02-24T03:08:01;230.83;;;195.13;;
20067;SDS011;10194;50.824;7.134;2023-02-24T03:10:30;226.07;;;192.03;;
20067;SDS011;10194;50.824;7.134;2023-02-24T03:12:58;224.87;;;188.53;;
20067;SDS011;10194;50.824;7.134;2023-02-24T03:15:28;227.20;;;195.93;;
20067;SDS011;10194;50.824;7.134;2023-02-24T03:18:02;233.80;;;192.60;;
20067;SDS011;10194;50.824;7.134;2023-02-24T03:20:44;229.77;;;199.93;;
20067;SDS011;10194;50.824;7.134;2023-02-24T03:23:21;230.10;;;200.30;;
20067;SDS011;10194;50.824;7.134;2023-02-24T03:25:58;237.83;;;204.83;;
20067;SDS011;10194;50.824;7.134;2023-02-24T03:28:43;232.63;;;207.33;;
20067;SDS011;10194;50.824;7.134;2023-02-24T03:31:26;235.23;;;209.60;;
20067;SDS011;10194;50.824;7.134;2023-02-24T03:36:51;247.60;;;221.17;;
20067;SDS011;10194;50.824;7.134;2023-02-24T03:39:18;244.77;;;218.60;;
20067;SDS011;10194;50.824;7.134;2023-02-24T03:44:36;254.50;;;228.07;;
20067;SDS011;10194;50.824;7.134;2023-02-24T03:47:02;246.67;;;221.17;;
20067;SDS011;10194;50.824;7.134;2023-02-24T03:49:28;254.03;;;227.93;;
20067;SDS011;10194;50.824;7.134;2023-02-24T04:01:12;259.50;;;233.27;;
20067;SDS011;10194;50.824;7.134;2023-02-24T04:07:19;254.27;;;227.97;;
20067;SDS011;10194;50.824;7.134;2023-02-24T04:12:43;250.83;;;224.97;;
20067;SDS011;10194;50.824;7.134;2023-02-24T04:15:26;249.83;;;224.47;;
20067;SDS011;10194;50.824;7.134;2023-02-24T04:18:05;249.40;;;222.87;;
20067;SDS011;10194;50.824;7.134;2023-02-24T04:20:46;247.57;;;222.13;;
20067;SDS011;10194;50.824;7.134;2023-02-24T04:23:17;248.30;;;223.27;;
20067;SDS011;10194;50.824;7.134;2023-02-24T04:25:48;247.50;;;220.93;;
20067;SDS011;10194;50.824;7.134;2023-02-24T04:28:16;243.30;;;217.07;;
20067;SDS011;10194;50.824;7.134;2023-02-24T04:30:49;240.83;;;215.07;;
20067;SDS011;10194;50.824;7.134;2023-02-24T04:33:19;241.97;;;216.37;;
20067;SDS011;10194;50.824;7.134;2023-02-24T04:35:46;240.80;;;215.13;;
20067;SDS011;10194;50.824;7.134;2023-02-24T04:38:17;241.07;;;214.80;;
20067;SDS011;10194;50.824;7.134;2023-02-24T04:40:43;242.07;;;215.53;;
20067;SDS011;10194;50.824;7.134;2023-02-24T04:43:09;236.50;;;207.63;;
20067;SDS011;10194;50.824;7.134;2023-02-24T04:45:37;241.27;;;215.13;;
20067;SDS011;10194;50.824;7.134;2023-02-24T04:48:06;247.93;;;220.73;;
20067;SDS011;10194;50.824;7.134;2023-02-24T04:50:40;243.17;;;216.10;;
20067;SDS011;10194;50.824;7.134;2023-02-24T04:53:08;252.30;;;218.87;;
20067;SDS011;10194;50.824;7.134;2023-02-24T04:55:41;246.83;;;219.60;;
20067;SDS011;10194;50.824;7.134;2023-02-24T04:58:18;247.67;;;221.50;;
20067;SDS011;10194;50.824;7.134;2023-02-24T05:00:53;245.73;;;219.73;;
20067;SDS011;10194;50.824;7.134;2023-02-24T05:03:20;245.13;;;218.30;;
20067;SDS011;10194;50.824;7.134;2023-02-24T05:05:54;251.03;;;223.87;;
20067;SDS011;10194;50.824;7.134;2023-02-24T05:08:24;251.83;;;224.50;;
20067;SDS011;10194;50.824;7.134;2023-02-24T05:10:51;247.77;;;221.13;;
20067;SDS011;10194;50.824;7.134;2023-02-24T05:15:52;250.47;;;223.47;;
20067;SDS011;10194;50.824;7.134;2023-02-24T05:18:33;250.50;;;224.27;;
20067;SDS011;10194;50.824;7.134;2023-02-24T05:21:03;250.60;;;223.97;;
20067;SDS011;10194;50.824;7.134;2023-02-24T05:23:51;250.07;;;224.23;;
20067;SDS011;10194;50.824;7.134;2023-02-24T05:26:19;252.77;;;225.43;;
20067;SDS011;10194;50.824;7.134;2023-02-24T05:28:49;249.50;;;222.87;;
20067;SDS011;10194;50.824;7.134;2023-02-24T05:31:19;252.73;;;225.40;;
20067;SDS011;10194;50.824;7.134;2023-02-24T05:33:51;245.97;;;220.53;;
20067;SDS011;10194;50.824;7.134;2023-02-24T05:36:20;252.27;;;225.83;;
20067;SDS011;10194;50.824;7.134;2023-02-24T05:38:47;247.90;;;222.77;;
20067;SDS011;10194;50.824;7.134;2023-02-24T05:41:21;253.50;;;228.13;;
20067;SDS011;10194;50.824;7.134;2023-02-24T05:43:56;252.03;;;227.47;;
20067;SDS011;10194;50.824;7.134;2023-02-24T05:46:26;249.90;;;223.93;;
20067;SDS011;10194;50.824;7.134;2023-02-24T05:48:57;242.30;;;217.93;;
20067;SDS011;10194;50.824;7.134;2023-02-24T05:51:30;246.23;;;221.80;;
20067;SDS011;10194;50.824;7.134;2023-02-24T05:54:04;239.60;;;216.03;;
20067;SDS011;10194;50.824;7.134;2023-02-24T05:56:33;235.60;;;211.50;;
20067;SDS011;10194;50.824;7.134;2023-02-24T05:59:00;241.93;;;217.73;;
20067;SDS011;10194;50.824;7.134;2023-02-24T06:01:31;242.67;;;218.40;;
20067;SDS011;10194;50.824;7.134;2023-02-24T06:04:01;248.73;;;225.23;;
20067;SDS011;10194;50.824;7.134;2023-02-24T06:06:35;253.07;;;228.90;;
20067;SDS011;10194;50.824;7.134;2023-02-24T06:09:08;244.87;;;221.07;;
20067;SDS011;10194;50.824;7.134;2023-02-24T06:11:40;248.77;;;224.83;;
20067;SDS011;10194;50.824;7.134;2023-02-24T06:14:09;245.37;;;221.63;;
20067;SDS011;10194;50.824;7.134;2023-02-24T06:16:37;252.97;;;228.80;;
20067;SDS011;10194;50.824;7.134;2023-02-24T06:19:05;246.47;;;223.30;;
20067;SDS011;10194;50.824;7.134;2023-02-24T06:21:36;246.93;;;223.83;;
20067;SDS011;10194;50.824;7.134;2023-02-24T06:24:05;246.37;;;222.43;;
20067;SDS011;10194;50.824;7.134;2023-02-24T06:26:38;246.47;;;222.97;;
20067;SDS011;10194;50.824;7.134;2023-02-24T06:29:10;241.37;;;217.87;;
20067;SDS011;10194;50.824;7.134;2023-02-24T06:31:41;242.50;;;219.07;;
20067;SDS011;10194;50.824;7.134;2023-02-24T06:34:09;245.70;;;222.10;;
20067;SDS011;10194;50.824;7.134;2023-02-24T06:36:37;240.07;;;217.13;;
20067;SDS011;10194;50.824;7.134;2023-02-24T06:39:03;246.80;;;223.07;;
20067;SDS011;10194;50.824;7.134;2023-02-24T06:41:32;244.17;;;220.73;;
20067;SDS011;10194;50.824;7.134;2023-02-24T06:43:59;246.60;;;223.30;;
20067;SDS011;10194;50.824;7.134;2023-02-24T06:46:25;248.50;;;224.77;;
20067;SDS011;10194;50.824;7.134;2023-02-24T06:48:52;243.67;;;219.77;;
20067;SDS011;10194;50.824;7.134;2023-02-24T06:51:17;249.90;;;225.63;;
20067;SDS011;10194;50.824;7.134;2023-02-24T06:53:43;252.17;;;228.10;;
20067;SDS011;10194;50.824;7.134;2023-02-24T06:56:10;245.57;;;221.77;;
20067;SDS011;10194;50.824;7.134;2023-02-24T06:58:44;246.47;;;222.73;;
20067;SDS011;10194;50.824;7.134;2023-02-24T07:01:22;239.23;;;215.97;;
20067;SDS011;10194;50.824;7.134;2023-02-24T07:03:51;249.83;;;225.57;;
20067;SDS011;10194;50.824;7.134;2023-02-24T07:06:37;244.63;;;220.97;;
20067;SDS011;10194;50.824;7.134;2023-02-24T07:09:12;250.40;;;226.97;;
20067;SDS011;10194;50.824;7.134;2023-02-24T07:11:41;243.60;;;219.87;;
20067;SDS011;10194;50.824;7.134;2023-02-24T07:14:15;247.13;;;223.43;;
20067;SDS011;10194;50.824;7.134;2023-02-24T07:16:46;245.23;;;220.30;;
20067;SDS011;10194;50.824;7.134;2023-02-24T07:19:16;243.13;;;219.30;;
20067;SDS011;10194;50.824;7.134;2023-02-24T07:21:44;246.17;;;221.67;;
20067;SDS011;10194;50.824;7.134;2023-02-24T07:24:17;251.67;;;227.17;;
20067;SDS011;10194;50.824;7.134;2023-02-24T07:26:58;252.87;;;227.97;;
20067;SDS011;10194;50.824;7.134;2023-02-24T07:29:27;247.37;;;222.63;;
20067;SDS011;10194;50.824;7.134;2023-02-24T07:31:56;248.23;;;223.83;;
20067;SDS011;10194;50.824;7.134;2023-02-24T07:34:25;242.93;;;218.67;;
20067;SDS011;10194;50.824;7.134;2023-02-24T07:36:54;241.97;;;217.50;;
20067;SDS011;10194;50.824;7.134;2023-02-24T07:39:21;242.27;;;218.23;;
20067;SDS011;10194;50.824;7.134;2023-02-24T07:41:48;237.97;;;213.47;;
20067;SDS011;10194;50.824;7.134;2023-02-24T07:44:16;244.67;;;219.80;;
20067;SDS011;10194;50.824;7.134;2023-02-24T07:46:44;240.90;;;215.70;;
20067;SDS011;10194;50.824;7.134;2023-02-24T07:49:13;238.47;;;213.73;;
20067;SDS011;10194;50.824;7.134;2023-02-24T07:51:46;239.93;;;215.20;;
20067;SDS011;10194;50.824;7.134;2023-02-24T07:54:17;241.13;;;216.87;;
20067;SDS011;10194;50.824;7.134;2023-02-24T07:56:48;236.00;;;212.00;;
20067;SDS011;10194;50.824;7.134;2023-02-24T07:59:27;235.43;;;211.10;;
20067;SDS011;10194;50.824;7.134;2023-02-24T08:01:56;240.37;;;216.27;;
20067;SDS011;10194;50.824;7.134;2023-02-24T08:04:24;233.77;;;209.43;;
20067;SDS011;10194;50.824;7.134;2023-02-24T08:06:53;243.83;;;219.77;;
20067;SDS011;10194;50.824;7.134;2023-02-24T08:09:27;239.97;;;216.20;;
20067;SDS011;10194;50.824;7.134;2023-02-24T08:12:11;244.07;;;220.07;;
20067;SDS011;10194;50.824;7.134;2023-02-24T08:14:43;240.07;;;216.60;;
20067;SDS011;10194;50.824;7.134;2023-02-24T08:17:14;243.80;;;218.87;;
20067;SDS011;10194;50.824;7.134;2023-02-24T08:19:44;239.60;;;215.80;;
20067;SDS011;10194;50.824;7.134;2023-02-24T08:22:12;237.77;;;214.10;;
20067;SDS011;10194;50.824;7.134;2023-02-24T08:24:53;238.43;;;214.93;;
20067;SDS011;10194;50.824;7.134;2023-02-24T08:27:30;239.50;;;215.20;;
20067;SDS011;10194;50.824;7.134;2023-02-24T08:30:03;234.73;;;210.63;;
20067;SDS011;10194;50.824;7.134;2023-02-24T08:32:35;227.97;;;204.13;;
20067;SDS011;10194;50.824;7.134;2023-02-24T08:35:11;230.90;;;207.10;;
20067;SDS011;10194;50.824;7.134;2023-02-24T08:37:42;229.00;;;205.77;;
20067;SDS011;10194;50.824;7.134;2023-02-24T08:42:58;239.17;;;215.20;;
20067;SDS011;10194;50.824;7.134;2023-02-24T08:48:35;235.27;;;211.50;;
20067;SDS011;10194;50.824;7.134;2023-02-24T08:51:12;235.67;;;212.00;;
20067;SDS011;10194;50.824;7.134;2023-02-24T08:53:47;229.90;;;206.27;;
20067;SDS011;10194;50.824;7.134;2023-02-24T08:56:17;224.23;;;200.03;;
20067;SDS011;10194;50.824;7.134;2023-02-24T08:58:48;222.07;;;197.00;;
20067;SDS011;10194;50.824;7.134;2023-02-24T09:01:24;220.73;;;196.30;;
20067;SDS011;10194;50.824;7.134;2023-02-24T09:04:00;230.17;;;205.20;;
20067;SDS011;10194;50.824;7.134;2023-02-24T09:09:12;229.60;;;204.90;;
20067;SDS011;10194;50.824;7.134;2023-02-24T09:11:51;221.53;;;197.73;;
20067;SDS011;10194;50.824;7.134;2023-02-24T09:14:24;223.03;;;199.50;;
20067;SDS011;10194;50.824;7.134;2023-02-24T09:17:00;226.97;;;203.37;;
20067;SDS011;10194;50.824;7.134;2023-02-24T09:19:39;225.53;;;201.77;;
20067;SDS011;10194;50.824;7.134;2023-02-24T09:22:15;222.07;;;198.43;;
20067;SDS011;10194;50.824;7.134;2023-02-24T09:25:00;225.30;;;201.87;;
20067;SDS011;10194;50.824;7.134;2023-02-24T09:27:54;232.10;;;208.23;;
20067;SDS011;10194;50.824;7.134;2023-02-24T09:30:40;232.23;;;208.63;;
20067;SDS011;10194;50.824;7.134;2023-02-24T09:33:25;234.50;;;211.10;;
20067;SDS011;10194;50.824;7.134;2023-02-24T09:36:09;237.20;;;213.70;;
20067;SDS011;10194;50.824;7.134;2023-02-24T09:38:47;231.47;;;207.77;;
20067;SDS011;10194;50.824;7.134;2023-02-24T09:41:27;233.03;;;208.47;;
20067;SDS011;10194;50.824;7.134;2023-02-24T09:44:34;231.37;;;207.70;;
20067;SDS011;10194;50.824;7.134;2023-02-24T09:47:22;241.57;;;217.27;;
20067;SDS011;10194;50.824;7.134;2023-02-24T09:50:37;244.47;;;219.90;;
20067;SDS011;10194;50.824;7.134;2023-02-24T09:53:33;239.07;;;215.67;;
20067;SDS011;10194;50.824;7.134;2023-02-24T09:56:17;238.83;;;214.43;;
20067;SDS011;10194;50.824;7.134;2023-02-24T10:08:02;221.10;;;197.87;;
20067;SDS011;10194;50.824;7.134;2023-02-24T10:10:42;229.37;;;205.03;;
20067;SDS011;10194;50.824;7.134;2023-02-24T10:13:24;214.53;;;191.17;;
20067;SDS011;10194;50.824;7.134;2023-02-24T10:15:58;218.47;;;187.47;;
20067;SDS011;10194;50.824;7.134;2023-02-24T10:24:37;225.20;;;201.27;;
20067;SDS011;10194;50.824;7.134;2023-02-24T10:27:25;235.13;;;211.13;;
20067;SDS011;10194;50.824;7.134;2023-02-24T10:33:18;230.37;;;206.30;;
20067;SDS011;10194;50.824;7.134;2023-02-24T10:36:03;218.93;;;195.43;;
20067;SDS011;10194;50.824;7.134;2023-02-24T10:38:35;209.47;;;182.17;;
20067;SDS011;10194;50.824;7.134;2023-02-24T10:41:04;212.53;;;188.00;;
20067;SDS011;10194;50.824;7.134;2023-02-24T10:43:34;218.87;;;195.27;;
20067;SDS011;10194;50.824;7.134;2023-02-24T10:46:17;220.73;;;191.63;;
20067;SDS011;10194;50.824;7.134;2023-02-24T10:48:58;221.43;;;197.90;;
20067;SDS011;10194;50.824;7.134;2023-02-24T10:51:38;210.77;;;187.77;;
20067;SDS011;10194;50.824;7.134;2023-02-24T10:54:27;213.13;;;189.50;;
20067;SDS011;10194;50.824;7.134;2023-02-24T10:57:09;222.40;;;198.07;;
20067;SDS011;10194;50.824;7.134;2023-02-24T10:59:58;218.27;;;193.70;;
20067;SDS011;10194;50.824;7.134;2023-02-24T11:02:46;212.57;;;188.57;;
20067;SDS011;10194;50.824;7.134;2023-02-24T11:05:43;229.67;;;205.40;;
20067;SDS011;10194;50.824;7.134;2023-02-24T11:08:29;227.00;;;203.77;;
20067;SDS011;10194;50.824;7.134;2023-02-24T11:14:15;229.03;;;205.03;;
20067;SDS011;10194;50.824;7.134;2023-02-24T11:17:01;222.60;;;198.00;;
20067;SDS011;10194;50.824;7.134;2023-02-24T11:22:14;212.73;;;188.40;;
20067;SDS011;10194;50.824;7.134;2023-02-24T11:24:45;213.33;;;183.47;;
20067;SDS011;10194;50.824;7.134;2023-02-24T11:27:12;214.67;;;178.47;;
20067;SDS011;10194;50.824;7.134;2023-02-24T11:29:47;210.27;;;176.33;;
20067;SDS011;10194;50.824;7.134;2023-02-24T11:32:47;207.30;;;177.17;;
20067;SDS011;10194;50.824;7.134;2023-02-24T11:38:39;219.63;;;193.50;;
20067;SDS011;10194;50.824;7.134;2023-02-24T11:41:38;225.03;;;201.27;;
20067;SDS011;10194;50.824;7.134;2023-02-24T11:47:02;229.07;;;205.23;;
20067;SDS011;10194;50.824;7.134;2023-02-24T11:49:38;233.33;;;208.60;;
20067;SDS011;10194;50.824;7.134;2023-02-24T11:52:13;228.73;;;204.07;;
20067;SDS011;10194;50.824;7.134;2023-02-24T11:54:46;238.57;;;213.47;;
20067;SDS011;10194;50.824;7.134;2023-02-24T11:57:37;235.03;;;210.83;;
20067;SDS011;10194;50.824;7.134;2023-02-24T12:02:43;238.43;;;214.67;;
20067;SDS011;10194;50.824;7.134;2023-02-24T12:05:26;243.50;;;218.37;;
20067;SDS011;10194;50.824;7.134;2023-02-24T12:11:16;247.83;;;222.83;;
20067;SDS011;10194;50.824;7.134;2023-02-24T12:14:20;246.03;;;222.67;;
20067;SDS011;10194;50.824;7.134;2023-02-24T12:17:03;246.07;;;222.60;;
20067;SDS011;10194;50.824;7.134;2023-02-24T12:19:51;250.50;;;227.13;;
20067;SDS011;10194;50.824;7.134;2023-02-24T12:22:31;251.37;;;227.77;;
20067;SDS011;10194;50.824;7.134;2023-02-24T12:25:31;259.67;;;235.67;;
20067;SDS011;10194;50.824;7.134;2023-02-24T12:42:42;261.27;;;236.83;;
20067;SDS011;10194;50.824;7.134;2023-02-24T12:45:52;255.17;;;231.40;;
20067;SDS011;10194;50.824;7.134;2023-02-24T12:48:44;254.17;;;230.57;;
20067;SDS011;10194;50.824;7.134;2023-02-24T12:52:00;254.27;;;230.87;;
20067;SDS011;10194;50.824;7.134;2023-02-24T12:57:45;252.90;;;229.23;;
20067;SDS011;10194;50.824;7.134;2023-02-24T13:14:37;258.47;;;234.80;;
20067;SDS011;10194;50.824;7.134;2023-02-24T13:19:40;260.33;;;236.03;;
20067;SDS011;10194;50.824;7.134;2023-02-24T13:24:40;262.83;;;238.47;;
20067;SDS011;10194;50.824;7.134;2023-02-24T13:27:26;262.73;;;238.60;;
20067;SDS011;10194;50.824;7.134;2023-02-24T13:29:59;257.97;;;234.20;;
20067;SDS011;10194;50.824;7.134;2023-02-24T13:32:35;259.07;;;235.13;;
20067;SDS011;10194;50.824;7.134;2023-02-24T13:42:42;255.20;;;231.67;;
20067;SDS011;10194;50.824;7.134;2023-02-24T13:45:20;252.27;;;229.10;;
20067;SDS011;10194;50.824;7.134;2023-02-24T13:48:01;252.90;;;229.43;;
20067;SDS011;10194;50.824;7.134;2023-02-24T13:51:07;255.60;;;231.80;;
20067;SDS011;10194;50.824;7.134;2023-02-24T13:53:50;258.60;;;234.97;;
20067;SDS011;10194;50.824;7.134;2023-02-24T13:57:09;254.40;;;231.00;;
20067;SDS011;10194;50.824;7.134;2023-02-24T13:59:28;259.43;;;235.47;;
20067;SDS011;10194;50.824;7.134;2023-02-24T14:04:35;257.97;;;234.70;;
20067;SDS011;10194;50.824;7.134;2023-02-24T14:07:17;258.30;;;234.83;;
20067;SDS011;10194;50.824;7.134;2023-02-24T14:09:53;261.70;;;238.07;;
20067;SDS011;10194;50.824;7.134;2023-02-24T14:12:30;256.27;;;232.47;;
20067;SDS011;10194;50.824;7.134;2023-02-24T14:14:59;260.53;;;236.33;;
20067;SDS011;10194;50.824;7.134;2023-02-24T14:17:28;255.63;;;231.67;;
20067;SDS011;10194;50.824;7.134;2023-02-24T14:22:42;255.67;;;231.83;;
20067;SDS011;10194;50.824;7.134;2023-02-24T14:25:20;255.80;;;232.23;;
20067;SDS011;10194;50.824;7.134;2023-02-24T14:27:51;255.80;;;232.20;;
20067;SDS011;10194;50.824;7.134;2023-02-24T14:33:01;258.87;;;234.60;;
20067;SDS011;10194;50.824;7.134;2023-02-24T14:35:35;254.40;;;231.50;;
20067;SDS011;10194;50.824;7.134;2023-02-24T14:38:33;254.23;;;229.70;;
20067;SDS011;10194;50.824;7.134;2023-02-24T14:41:04;257.13;;;233.63;;
20067;SDS011;10194;50.824;7.134;2023-02-24T14:43:41;254.83;;;231.43;;
20067;SDS011;10194;50.824;7.134;2023-02-24T14:46:07;248.30;;;225.87;;
20067;SDS011;10194;50.824;7.134;2023-02-24T14:48:33;253.47;;;229.70;;
20067;SDS011;10194;50.824;7.134;2023-02-24T14:53:58;259.27;;;235.03;;
20067;SDS011;10194;50.824;7.134;2023-02-24T14:56:29;251.27;;;227.63;;
20067;SDS011;10194;50.824;7.134;2023-02-24T14:59:01;251.97;;;229.17;;
20067;SDS011;10194;50.824;7.134;2023-02-24T15:01:42;253.90;;;230.83;;
20067;SDS011;10194;50.824;7.134;2023-02-24T15:04:13;251.93;;;228.37;;
20067;SDS011;10194;50.824;7.134;2023-02-24T15:06:49;249.43;;;226.60;;
20067;SDS011;10194;50.824;7.134;2023-02-24T15:09:17;251.90;;;228.20;;
20067;SDS011;10194;50.824;7.134;2023-02-24T15:11:46;251.50;;;227.53;;
20067;SDS011;10194;50.824;7.134;2023-02-24T15:14:18;251.37;;;228.53;;
20067;SDS011;10194;50.824;7.134;2023-02-24T15:16:50;253.30;;;229.67;;
20067;SDS011;10194;50.824;7.134;2023-02-24T15:22:01;247.23;;;224.63;;
20067;SDS011;10194;50.824;7.134;2023-02-24T15:24:29;249.10;;;226.13;;
20067;SDS011;10194;50.824;7.134;2023-02-24T15:29:55;251.30;;;228.47;;
20067;SDS011;10194;50.824;7.134;2023-02-24T15:32:24;254.30;;;230.53;;
20067;SDS011;10194;50.824;7.134;2023-02-24T15:34:52;253.20;;;230.40;;
20067;SDS011;10194;50.824;7.134;2023-02-24T15:37:21;249.90;;;226.60;;
20067;SDS011;10194;50.824;7.134;2023-02-24T15:39:50;252.60;;;229.33;;
20067;SDS011;10194;50.824;7.134;2023-02-24T15:42:27;255.23;;;232.27;;
20067;SDS011;10194;50.824;7.134;2023-02-24T15:44:58;261.00;;;236.50;;
20067;SDS011;10194;50.824;7.134;2023-02-24T15:47:28;262.83;;;238.87;;
20067;SDS011;10194;50.824;7.134;2023-02-24T15:50:06;256.23;;;232.33;;
20067;SDS011;10194;50.824;7.134;2023-02-24T15:52:32;255.20;;;231.93;;
20067;SDS011;10194;50.824;7.134;2023-02-24T15:55:00;252.93;;;229.90;;
20067;SDS011;10194;50.824;7.134;2023-02-24T15:57:28;254.87;;;231.47;;
20067;SDS011;10194;50.824;7.134;2023-02-24T15:59:55;256.40;;;232.93;;
20067;SDS011;10194;50.824;7.134;2023-02-24T16:02:22;262.30;;;237.67;;
20067;SDS011;10194;50.824;7.134;2023-02-24T16:04:49;253.53;;;230.00;;
20067;SDS011;10194;50.824;7.134;2023-02-24T16:07:28;256.30;;;233.07;;
20067;SDS011;10194;50.824;7.134;2023-02-24T16:09:57;259.77;;;235.70;;
20067;SDS011;10194;50.824;7.134;2023-02-24T16:12:26;259.10;;;234.60;;
20067;SDS011;10194;50.824;7.134;2023-02-24T16:14:59;258.27;;;234.57;;
20067;SDS011;10194;50.824;7.134;2023-02-24T16:17:38;258.67;;;234.37;;
20067;SDS011;10194;50.824;7.134;2023-02-24T16:20:06;259.57;;;235.13;;
20067;SDS011;10194;50.824;7.134;2023-02-24T16:23:02;256.27;;;232.47;;
20067;SDS011;10194;50.824;7.134;2023-02-24T16:25:32;256.30;;;232.93;;
20067;SDS011;10194;50.824;7.134;2023-02-24T16:28:02;257.03;;;233.20;;
20067;SDS011;10194;50.824;7.134;2023-02-24T16:30:29;254.67;;;230.83;;
20067;SDS011;10194;50.824;7.134;2023-02-24T16:32:59;259.53;;;235.50;;
20067;SDS011;10194;50.824;7.134;2023-02-24T16:35:25;252.93;;;229.80;;
20067;SDS011;10194;50.824;7.134;2023-02-24T16:37:52;255.07;;;231.93;;
20067;SDS011;10194;50.824;7.134;2023-02-24T16:40:20;254.77;;;230.53;;
20067;SDS011;10194;50.824;7.134;2023-02-24T16:42:54;255.83;;;232.23;;
20067;SDS011;10194;50.824;7.134;2023-02-24T16:45:20;258.03;;;234.37;;
20067;SDS011;10194;50.824;7.134;2023-02-24T16:47:50;258.53;;;234.60;;
20067;SDS011;10194;50.824;7.134;2023-02-24T16:50:18;254.67;;;231.07;;
20067;SDS011;10194;50.824;7.134;2023-02-24T16:52:54;257.30;;;234.13;;
20067;SDS011;10194;50.824;7.134;2023-02-24T16:55:20;256.63;;;233.23;;
20067;SDS011;10194;50.824;7.134;2023-02-24T16:57:47;256.37;;;232.73;;
20067;SDS011;10194;50.824;7.134;2023-02-24T17:00:13;257.70;;;233.63;;
20067;SDS011;10194;50.824;7.134;2023-02-24T17:02:41;257.93;;;234.53;;
20067;SDS011;10194;50.824;7.134;2023-02-24T17:05:17;256.00;;;232.47;;
20067;SDS011;10194;50.824;7.134;2023-02-24T17:07:50;264.17;;;240.40;;
20067;SDS011;10194;50.824;7.134;2023-02-24T17:10:18;260.10;;;235.53;;
20067;SDS011;10194;50.824;7.134;2023-02-24T17:12:44;261.67;;;237.83;;
20067;SDS011;10194;50.824;7.134;2023-02-24T17:15:15;260.73;;;236.80;;
20067;SDS011;10194;50.824;7.134;2023-02-24T17:17:44;258.70;;;235.07;;